Kezdőlap
METAR-TAF:

METAR-TAF

Repülőterek :

Doylestown Airport

Doylestown, Pennsylvania, Amerikai Egyesült Államok

földrajzi szélesség: 40-19-48N, földrajzi hosszúság: 075-07-21W, magasság: 120 m

Jelenlegi meteorológiai megfigyelések

A jelentés 1 órával és 1 perccel ezelõtt készült, 19:54 UTC
Szélcsend
Hőmérséklet 32°C
Páratartalom 46%
Légköri nyomás 1015 hPa
Látótávolság: 16.1 km
Kevés felhő 4800 lábon

METAR: KDYL 091954Z AUTO 00000KT 10SM FEW048 32/19 A2997 RMK AO2 SLP142 T03170189

Idő: 16:55 (20:55 UTC)


TAF: hiányzik

Meteorológiai megfigyelések és előrejelzések több, mint 4000 repülőtéren (METAR és TAF jelentéseket).

A térképen piros és sárga pontok jelzik az elérhető meteorológiai állomásokat.

Mozgassa az egeret a pont fölött, hogy megjelenjen az állomás neve.

Azután kattintson az időjárási megfigyelések és előrejelzések megtekintéséhez.

A térkép megváltoztatása: kattintson a fekete keresztel jelölt zöld gombra ráközelítéshez, a vonallal jelölt zöld gombra távolításhoz, vagy a zöld nyilakra a szomszédos térképek eléréséhez.


METAR-TAF: